Waasis, Canada
Current Conditions -  °F | °C
As of 8:38 PM on Monday 24 Nov 2014 (Local Time) from CYFC Reporting Station
Light Rain Light Rain  
Wind Chill: 59°   Ceiling: 1000
Heat Index: 59°   Visibility: 6mi
Dew Point: 57°   Wind: 12mph
Humidity: 94%   Direction: 180°S
Pressure: 29.56"   Gusts: 17mph
Location:  45.83°N, 66.58°W
Report Text: CYFC 250038Z AUTO 18010G15KT 6SM -RA BR OVC010 15/14 A2956 RMK SLP009 DENSITY ALT 400FT
Loading
Personal Weather Stations






























Interactive Weather Map New forecast layout! Learn more

10-Day Weather Forecast

Advertisements
Track Severe Weather on mobile